Time;durP1;ratioP1;P1;durP2;ratioP2;P2;SDS_P1;SDS_P2;PMS_P1;PMS_P2;Temp;Humidity;BMP_temperature;BMP_pressure;BME280_temperature;BME280_humidity;BME280_pressure;Samples;Min_cycle;Max_cycle;Signal;HPM_P1;HPM_P2
2021/05/19 00:02:27;;;;;;;6.50;4.22;;;13.10;70.40;;;;;;5007329;28;20142;-70
2021/05/19 00:04:54;;;;;;;6.93;3.80;;;13.20;70.40;;;;;;5005952;28;20018;-65
2021/05/19 00:07:21;;;;;;;6.97;4.72;;;13.40;69.60;;;;;;5000620;28;20030;-62
2021/05/19 00:09:49;;;;;;;10.60;4.63;;;13.50;70.70;;;;;;5005751;28;20112;-64
2021/05/19 00:12:16;;;;;;;7.95;4.57;;;13.70;70.20;;;;;;5004281;28;20029;-71
2021/05/19 00:14:44;;;;;;;8.13;4.60;;;13.80;70.50;;;;;;5006112;28;20402;-63
2021/05/19 00:17:11;;;;;;;7.90;4.45;;;13.80;70.20;;;;;;5005685;28;20143;-71
2021/05/19 00:19:38;;;;;;;6.82;4.22;;;13.90;68.90;;;;;;5006745;28;20045;-71
2021/05/19 00:22:05;;;;;;;8.27;4.63;;;14.10;67.90;;;;;;5001460;28;20033;-62
2021/05/19 00:24:33;;;;;;;7.97;4.72;;;14.20;67.40;;;;;;5006573;28;20053;-63
2021/05/19 00:27:00;;;;;;;7.82;5.45;;;14.40;68.20;;;;;;5005887;28;20083;-71
2021/05/19 00:29:27;;;;;;;8.25;4.25;;;14.50;68.90;;;;;;5004803;28;20091;-62
2021/05/19 00:31:56;;;;;;;6.35;4.25;;;14.60;66.90;;;;;;5004171;28;20080;-62
2021/05/19 00:34:23;;;;;;;6.93;4.65;;;14.70;67.70;;;;;;5005729;28;20018;-72
2021/05/19 00:36:50;;;;;;;9.95;4.72;;;14.80;67.10;;;;;;5006328;28;20057;-62
2021/05/19 00:39:18;;;;;;;7.10;5.15;;;15.00;66.90;;;;;;5005387;28;20065;-71
2021/05/19 00:41:45;;;;;;;6.55;4.40;;;15.10;67.10;;;;;;5005092;28;20048;-63
2021/05/19 00:44:21;;;;;;;6.28;4.97;;;15.30;65.60;;;;;;5004878;28;20502;-70
2021/05/19 00:46:48;;;;;;;8.13;6.25;;;15.40;65.20;;;;;;5005196;28;20026;-63
2021/05/19 00:49:17;;;;;;;6.78;5.93;;;15.50;66.50;;;;;;5005881;28;20129;-63
2021/05/19 00:51:44;;;;;;;7.38;6.28;;;15.70;64.50;;;;;;5004178;28;20112;-64
2021/05/19 00:54:12;;;;;;;7.03;5.88;;;15.90;64.40;;;;;;5005039;28;20025;-63
2021/05/19 00:56:41;;;;;;;7.88;5.80;;;16.10;64.10;;;;;;5004985;28;20378;-69
2021/05/19 00:59:10;;;;;;;7.88;5.05;;;16.20;62.80;;;;;;4992507;28;20052;-72
2021/05/19 01:01:39;;;;;;;7.40;6.05;;;16.40;61.10;;;;;;5007782;28;20449;-63
2021/05/19 01:04:07;;;;;;;9.90;5.13;;;16.50;61.00;;;;;;5007643;28;20370;-71
2021/05/19 01:11:56;;;;;;;5.53;4.35;;;16.60;60.90;;;;;;5002732;28;20292;-71
2021/05/19 01:14:23;;;;;;;5.15;4.45;;;16.90;59.70;;;;;;5007482;28;20104;-71
2021/05/19 01:16:51;;;;;;;6.85;4.10;;;16.90;59.30;;;;;;5008045;28;20030;-71
2021/05/19 01:19:21;;;;;;;5.55;3.88;;;17.10;57.60;;;;;;5005099;28;20242;-70
2021/05/19 01:21:52;;;;;;;7.00;4.43;;;17.30;57.20;;;;;;5007031;28;20034;-64
2021/05/19 01:24:20;;;;;;;4.18;3.15;;;17.40;57.30;;;;;;5005863;28;20033;-64
2021/05/19 01:26:47;;;;;;;4.07;3.28;;;17.40;56.30;;;;;;5007391;28;20105;-65
2021/05/19 01:29:15;;;;;;;3.92;3.17;;;17.60;56.20;;;;;;5007232;28;20018;-63
2021/05/19 01:31:46;;;;;;;4.50;2.70;;;17.80;54.50;;;;;;5007300;28;20462;-62
2021/05/19 01:34:14;;;;;;;6.13;3.90;;;17.90;53.80;;;;;;5007011;28;20477;-70
2021/05/19 01:36:42;;;;;;;6.85;4.40;;;17.80;54.40;;;;;;5006952;28;20532;-72
2021/05/19 01:39:09;;;;;;;5.28;3.40;;;17.80;55.10;;;;;;5006720;28;20030;-64
2021/05/19 01:41:37;;;;;;;4.43;3.30;;;17.90;55.50;;;;;;5005636;28;20028;-63
2021/05/19 01:44:13;;;;;;;5.80;5.10;;;18.10;56.00;;;;;;5007445;28;20049;-71
2021/05/19 01:46:41;;;;;;;3.85;3.00;;;18.30;54.90;;;;;;5005813;28;20442;-72
2021/05/19 01:49:09;;;;;;;5.63;3.65;;;18.50;52.40;;;;;;5005837;28;20375;-69
2021/05/19 01:51:38;;;;;;;3.95;3.30;;;18.60;56.00;;;;;;5007400;28;20117;-64
2021/05/19 01:54:07;;;;;;;6.25;2.92;;;18.70;54.90;;;;;;5007052;28;20034;-70
2021/05/19 01:56:39;;;;;;;2.10;1.70;;;18.90;53.50;;;;;;5007199;28;20524;-71
2021/05/19 01:59:07;;;;;;;2.83;2.10;;;19.00;51.30;;;;;;5003898;28;20041;-65
2021/05/19 02:01:35;;;;;;;3.53;2.30;;;19.20;50.00;;;;;;5007816;28;20063;-74
2021/05/19 02:04:11;;;;;;;5.32;3.40;;;19.10;51.60;;;;;;4988862;28;20033;-74
2021/05/19 02:06:48;;;;;;;2.50;1.90;;;19.10;52.30;;;;;;4988502;28;20045;-64
2021/05/19 02:09:18;;;;;;;5.47;3.13;;;19.20;53.60;;;;;;5006776;28;20451;-74
2021/05/19 02:11:46;;;;;;;5.93;4.80;;;19.20;53.10;;;;;;4991801;28;20042;-64
2021/05/19 02:14:14;;;;;;;3.33;2.67;;;19.40;52.50;;;;;;5006473;28;20038;-73
2021/05/19 02:16:43;;;;;;;3.20;1.83;;;19.40;51.60;;;;;;5006795;28;20028;-72
2021/05/19 02:19:13;;;;;;;2.55;1.70;;;19.50;52.10;;;;;;5067064;23;20044;-76
2021/05/19 02:21:42;;;;;;;3.67;1.80;;;19.70;51.40;;;;;;5085281;28;20028;-65
2021/05/19 02:24:11;;;;;;;5.97;2.40;;;19.70;50.70;;;;;;5084725;28;20081;-66
2021/05/19 02:26:39;;;;;;;2.03;1.55;;;19.90;49.30;;;;;;5085387;28;20411;-64
2021/05/19 02:29:08;;;;;;;2.97;1.83;;;20.10;50.10;;;;;;5086445;28;20024;-64
2021/05/19 02:31:36;;;;;;;7.28;2.85;;;20.20;48.20;;;;;;5084135;28;20035;-65
2021/05/19 02:34:06;;;;;;;2.97;1.65;;;20.20;47.40;;;;;;5086028;28;20056;-75
2021/05/19 02:36:34;;;;;;;2.75;1.45;;;20.20;47.00;;;;;;5086027;28;20061;-66
2021/05/19 02:39:05;;;;;;;1.40;1.17;;;20.40;46.80;;;;;;5084480;28;20028;-65
2021/05/19 02:41:32;;;;;;;4.57;2.40;;;20.40;46.70;;;;;;5085960;28;20111;-66
2021/05/19 02:43:59;;;;;;;10.70;5.15;;;20.40;46.30;;;;;;5085980;28;20429;-75
2021/05/19 02:46:27;;;;;;;6.63;4.32;;;20.30;47.30;;;;;;5086134;28;20020;-69
2021/05/19 02:49:01;;;;;;;4.50;2.90;;;20.50;45.00;;;;;;5085991;28;20008;-74
2021/05/19 02:51:34;;;;;;;1.80;1.00;;;20.50;45.70;;;;;;5084390;28;20111;-66
2021/05/19 02:54:05;;;;;;;2.63;0.80;;;20.70;43.80;;;;;;5081563;28;20123;-63
2021/05/19 02:56:33;;;;;;;4.25;1.13;;;20.80;43.00;;;;;;5084820;28;20105;-65
2021/05/19 02:59:04;;;;;;;4.85;0.88;;;20.90;44.10;;;;;;5083795;28;20032;-74
2021/05/19 03:01:31;;;;;;;2.13;1.15;;;20.90;44.70;;;;;;5084308;28;20501;-74
2021/05/19 03:03:59;;;;;;;2.22;1.17;;;20.90;44.90;;;;;;5081820;28;20016;-66
2021/05/19 03:06:27;;;;;;;3.33;2.50;;;21.00;44.40;;;;;;5085376;28;20067;-73
2021/05/19 03:08:54;;;;;;;1.60;1.17;;;20.90;42.90;;;;;;5084378;28;20031;-73
2021/05/19 03:11:22;;;;;;;2.72;1.95;;;20.90;43.40;;;;;;5087920;28;20487;-65
2021/05/19 03:13:49;;;;;;;2.67;1.48;;;21.00;42.60;;;;;;5086437;28;20719;-73
2021/05/19 03:16:17;;;;;;;1.60;0.93;;;21.00;42.90;;;;;;5089017;28;20016;-64
2021/05/19 03:18:45;;;;;;;5.30;1.30;;;20.90;42.60;;;;;;5088500;28;20048;-63
2021/05/19 03:21:12;;;;;;;4.30;1.20;;;20.90;43.20;;;;;;5086899;28;20036;-74
2021/05/19 03:23:40;;;;;;;4.43;1.40;;;21.00;44.00;;;;;;5085693;28;20023;-72
2021/05/19 03:26:07;;;;;;;1.90;1.30;;;21.00;44.90;;;;;;5088873;28;20020;-74
2021/05/19 03:28:35;;;;;;;3.63;1.77;;;21.00;44.70;;;;;;5088041;28;20015;-74
2021/05/19 03:31:02;;;;;;;1.95;1.30;;;21.00;44.20;;;;;;5088539;28;20122;-72
2021/05/19 03:33:30;;;;;;;3.40;1.20;;;20.80;43.80;;;;;;5088418;28;20153;-64
2021/05/19 03:35:58;;;;;;;6.47;4.45;;;20.80;44.20;;;;;;5086133;28;20024;-65
2021/05/19 03:38:25;;;;;;;4.55;2.28;;;20.90;44.70;;;;;;5087652;28;20035;-65
2021/05/19 03:40:52;;;;;;;4.45;1.33;;;21.00;44.10;;;;;;5087368;28;20508;-74
2021/05/19 03:43:20;;;;;;;2.72;1.80;;;21.10;44.10;;;;;;5087343;28;20031;-72
2021/05/19 03:45:47;;;;;;;2.33;1.40;;;21.20;46.90;;;;;;5086986;28;20027;-63
2021/05/19 03:48:15;;;;;;;3.33;0.93;;;21.20;46.50;;;;;;5087871;28;20487;-71
2021/05/19 03:50:43;;;;;;;2.45;1.10;;;21.20;42.90;;;;;;5087783;28;20452;-68
2021/05/19 03:53:10;;;;;;;1.40;0.90;;;21.20;43.60;;;;;;5086925;28;20056;-66
2021/05/19 03:55:38;;;;;;;2.47;0.93;;;21.30;43.80;;;;;;5088595;28;20497;-66
2021/05/19 03:58:06;;;;;;;2.60;1.33;;;21.30;45.10;;;;;;5087416;28;20029;-65
2021/05/19 04:00:35;;;;;;;1.83;1.00;;;21.20;45.60;;;;;;5088736;28;20031;-66
2021/05/19 04:03:04;;;;;;;2.97;1.40;;;21.20;44.80;;;;;;5088466;28;20039;-64
2021/05/19 04:05:34;;;;;;;1.35;0.98;;;21.20;44.50;;;;;;5085957;28;20046;-68
2021/05/19 04:08:03;;;;;;;2.58;1.23;;;21.10;44.20;;;;;;5090269;28;20148;-66
2021/05/19 04:10:30;;;;;;;1.52;1.10;;;21.30;43.80;;;;;;5089699;28;20038;-67
2021/05/19 04:12:57;;;;;;;1.80;1.20;;;21.30;44.30;;;;;;5090993;28;20341;-64
2021/05/19 04:15:25;;;;;;;2.00;0.98;;;21.40;45.60;;;;;;5089500;28;20024;-65
2021/05/19 04:17:53;;;;;;;1.45;1.02;;;21.40;43.70;;;;;;5090248;28;20038;-66
2021/05/19 04:20:21;;;;;;;2.60;1.17;;;21.40;44.40;;;;;;5090850;28;20373;-65
2021/05/19 04:22:48;;;;;;;4.03;1.92;;;21.40;44.50;;;;;;5091497;28;20020;-66
2021/05/19 04:25:16;;;;;;;2.22;1.33;;;21.50;44.70;;;;;;5091304;28;20018;-66
2021/05/19 04:27:44;;;;;;;2.80;1.33;;;21.50;42.70;;;;;;5091228;28;20025;-65
2021/05/19 04:30:12;;;;;;;4.47;1.58;;;21.70;43.00;;;;;;5091166;28;20528;-66
2021/05/19 04:32:40;;;;;;;2.47;1.50;;;21.50;43.60;;;;;;5091186;28;20388;-67
2021/05/19 04:35:09;;;;;;;6.13;3.97;;;21.40;44.40;;;;;;5091197;28;20012;-67
2021/05/19 04:37:36;;;;;;;2.72;1.98;;;21.50;44.20;;;;;;5090809;28;20054;-68
2021/05/19 04:40:05;;;;;;;2.65;1.58;;;21.50;44.00;;;;;;5091486;28;20056;-65
2021/05/19 04:42:34;;;;;;;2.90;1.85;;;21.50;44.00;;;;;;5084352;28;20023;-68
2021/05/19 04:45:02;;;;;;;2.85;2.05;;;21.50;44.40;;;;;;5090271;28;20035;-68
2021/05/19 04:47:30;;;;;;;4.50;1.40;;;21.60;44.40;;;;;;5086742;28;20063;-65
2021/05/19 04:49:57;;;;;;;4.95;1.48;;;21.50;43.70;;;;;;5090625;28;20020;-66
2021/05/19 04:52:24;;;;;;;4.88;2.40;;;21.40;43.70;;;;;;5090931;28;20103;-67
2021/05/19 04:54:52;;;;;;;1.50;1.17;;;21.30;44.90;;;;;;5089861;28;20020;-64
2021/05/19 04:57:19;;;;;;;4.35;3.78;;;21.10;45.20;;;;;;5090347;28;20107;-66
2021/05/19 04:59:46;;;;;;;1.33;1.17;;;21.20;45.00;;;;;;5084070;28;20107;-66
2021/05/19 05:02:14;;;;;;;1.30;1.05;;;21.20;44.90;;;;;;5087354;28;20050;-64
2021/05/19 05:04:41;;;;;;;1.40;1.10;;;21.20;45.90;;;;;;5087857;28;20027;-69
2021/05/19 05:07:08;;;;;;;1.63;0.93;;;21.30;45.90;;;;;;5087236;28;20027;-67
2021/05/19 05:09:36;;;;;;;0.85;0.82;;;21.50;43.80;;;;;;5087101;28;20098;-67
2021/05/19 05:12:03;;;;;;;2.50;1.08;;;21.60;43.70;;;;;;5087598;28;20119;-65
2021/05/19 05:14:31;;;;;;;1.75;0.95;;;21.70;45.20;;;;;;5085979;28;20365;-67
2021/05/19 05:16:58;;;;;;;1.45;0.80;;;21.80;44.30;;;;;;5087354;28;20035;-65
2021/05/19 05:19:25;;;;;;;2.75;0.80;;;21.90;44.10;;;;;;5086351;28;20584;-69
2021/05/19 05:21:52;;;;;;;1.00;0.88;;;22.10;43.90;;;;;;5086051;28;20034;-67
2021/05/19 05:24:20;;;;;;;1.52;0.73;;;22.20;42.90;;;;;;5081216;28;20012;-68
2021/05/19 05:26:47;;;;;;;2.88;0.80;;;22.40;42.90;;;;;;5087488;28;20462;-68
2021/05/19 05:29:14;;;;;;;0.90;0.70;;;22.60;43.30;;;;;;5087671;28;20426;-68
2021/05/19 05:31:41;;;;;;;3.65;0.90;;;22.70;42.10;;;;;;5087818;28;20026;-65
2021/05/19 05:34:09;;;;;;;1.50;0.70;;;22.90;42.90;;;;;;5087420;28;20106;-65
2021/05/19 05:36:36;;;;;;;1.42;0.70;;;23.00;42.80;;;;;;5087107;28;20081;-65
2021/05/19 05:39:04;;;;;;;0.88;0.60;;;22.90;42.90;;;;;;5088295;28;20036;-67
2021/05/19 05:41:31;;;;;;;2.25;0.80;;;22.90;42.70;;;;;;5093626;28;20463;-64
2021/05/19 05:43:59;;;;;;;1.33;0.70;;;22.80;43.30;;;;;;5088151;28;20182;-66
2021/05/19 05:46:26;;;;;;;1.17;0.88;;;22.60;42.30;;;;;;5086883;28;20024;-69
2021/05/19 05:48:54;;;;;;;2.30;0.80;;;22.60;42.70;;;;;;5088861;28;20411;-67
2021/05/19 05:51:22;;;;;;;2.60;0.90;;;22.70;43.20;;;;;;5095202;28;20024;-69
2021/05/19 05:53:49;;;;;;;2.47;1.20;;;22.40;44.50;;;;;;5087961;28;20043;-68
2021/05/19 05:56:16;;;;;;;3.97;1.10;;;21.90;46.00;;;;;;5085134;28;20637;-67
2021/05/19 05:58:43;;;;;;;0.90;0.70;;;21.40;45.80;;;;;;5086897;28;20024;-69
2021/05/19 06:01:11;;;;;;;4.82;1.00;;;21.10;44.00;;;;;;5085746;28;20057;-66
2021/05/19 06:03:39;;;;;;;3.53;1.08;;;20.70;46.50;;;;;;5087677;28;20017;-68
2021/05/19 06:06:06;;;;;;;1.33;0.90;;;20.20;49.20;;;;;;5086751;28;20024;-70
2021/05/19 06:08:33;;;;;;;2.30;0.80;;;20.00;48.60;;;;;;5086667;28;20320;-71
2021/05/19 06:11:04;;;;;;;2.95;0.75;;;19.80;49.90;;;;;;5084576;28;20039;-68
2021/05/19 06:13:32;;;;;;;2.22;1.02;;;19.60;50.00;;;;;;5084328;28;20114;-69
2021/05/19 06:15:59;;;;;;;3.20;0.93;;;19.40;51.40;;;;;;5086439;28;20077;-71
2021/05/19 06:18:27;;;;;;;1.58;0.70;;;19.40;52.80;;;;;;5085634;28;20052;-72
2021/05/19 06:20:54;;;;;;;2.60;1.00;;;19.30;51.30;;;;;;5086578;28;20432;-71
2021/05/19 06:23:22;;;;;;;3.92;1.30;;;19.40;51.30;;;;;;5078853;28;20020;-70
2021/05/19 06:25:49;;;;;;;7.78;3.88;;;19.30;49.40;;;;;;5085840;28;20039;-66
2021/05/19 06:28:16;;;;;;;6.45;2.42;;;19.20;51.70;;;;;;5080330;28;20031;-64
2021/05/19 06:30:44;;;;;;;6.25;1.25;;;19.10;53.40;;;;;;5083390;28;20020;-66
2021/05/19 06:33:11;;;;;;;1.40;0.50;;;19.00;53.00;;;;;;5082374;28;20016;-72
2021/05/19 06:35:38;;;;;;;2.03;0.60;;;19.20;52.70;;;;;;5080707;28;20487;-70
2021/05/19 06:38:06;;;;;;;0.80;0.70;;;19.70;52.00;;;;;;5083214;28;20030;-63
2021/05/19 06:40:34;;;;;;;2.00;0.73;;;20.00;50.60;;;;;;5083442;28;20027;-62
2021/05/19 06:43:01;;;;;;;1.80;1.33;;;20.20;50.20;;;;;;5085135;28;20045;-62
2021/05/19 06:45:29;;;;;;;2.58;1.25;;;20.10;50.20;;;;;;5073391;28;20585;-62
2021/05/19 06:47:56;;;;;;;2.40;1.08;;;19.80;50.50;;;;;;5078498;28;20127;-69
2021/05/19 06:50:23;;;;;;;1.55;1.20;;;19.50;51.80;;;;;;5083095;28;20028;-62
2021/05/19 06:52:51;;;;;;;3.35;2.40;;;18.90;52.90;;;;;;5086381;28;20115;-62
2021/05/19 06:55:19;;;;;;;5.85;2.45;;;18.50;54.80;;;;;;5083981;28;20077;-62
2021/05/19 06:57:47;;;;;;;4.25;2.17;;;18.20;56.20;;;;;;5085634;28;20479;-72
2021/05/19 07:00:14;;;;;;;3.75;2.20;;;17.80;57.70;;;;;;5081734;28;20027;-62
2021/05/19 07:02:42;;;;;;;5.93;2.70;;;17.40;58.80;;;;;;5082156;28;20141;-73
2021/05/19 07:05:10;;;;;;;3.17;1.92;;;17.00;59.70;;;;;;5085690;28;20028;-64
2021/05/19 07:07:38;;;;;;;5.95;2.70;;;16.70;60.90;;;;;;5085220;28;20119;-62
2021/05/19 07:10:07;;;;;;;2.88;1.45;;;16.50;61.40;;;;;;4380982;28;10000686;-72
2021/05/19 07:12:35;;;;;;;2.28;1.40;;;16.30;61.50;;;;;;5076307;28;20115;-70
2021/05/19 07:15:09;;;;;;;2.58;1.55;;;15.90;62.60;;;;;;5079334;28;20491;-62
2021/05/19 07:17:37;;;;;;;3.95;1.73;;;15.70;63.90;;;;;;5080013;28;20020;-72
2021/05/19 07:20:06;;;;;;;2.90;1.70;;;15.40;65.90;;;;;;5081293;28;20412;-69
2021/05/19 07:22:34;;;;;;;3.30;2.17;;;15.20;66.40;;;;;;5082449;28;20105;-72
2021/05/19 07:25:01;;;;;;;3.05;1.80;;;15.20;66.20;;;;;;5080709;28;20055;-62
2021/05/19 07:27:28;;;;;;;4.72;1.90;;;15.00;66.40;;;;;;5083016;28;20466;-67
2021/05/19 07:29:56;;;;;;;5.57;2.25;;;15.00;66.70;;;;;;5079650;28;20023;-65
2021/05/19 07:32:23;;;;;;;3.28;1.85;;;14.80;67.10;;;;;;5081519;28;20020;-62
2021/05/19 07:34:50;;;;;;;5.88;1.98;;;14.70;66.60;;;;;;5081324;28;20484;-63
2021/05/19 07:37:18;;;;;;;3.63;1.95;;;14.70;66.30;;;;;;5081762;28;20035;-71
2021/05/19 07:39:45;;;;;;;4.00;2.30;;;14.60;66.40;;;;;;5081731;28;20023;-63
2021/05/19 07:42:17;;;;;;;5.10;2.00;;;14.60;66.00;;;;;;5084117;28;20106;-63
2021/05/19 07:44:45;;;;;;;5.07;3.45;;;14.60;65.90;;;;;;5086261;28;20024;-63
2021/05/19 07:47:13;;;;;;;5.45;2.85;;;14.50;66.10;;;;;;5085061;28;20028;-64
2021/05/19 07:49:41;;;;;;;4.78;2.75;;;14.50;66.00;;;;;;5086114;28;20024;-69
2021/05/19 07:52:08;;;;;;;5.50;3.08;;;14.40;65.90;;;;;;5085769;28;20395;-68
2021/05/19 07:54:36;;;;;;;4.97;1.90;;;14.30;65.70;;;;;;5084051;28;20275;-72
2021/05/19 08:00:19;;;;;;;5.72;2.15;;;14.20;66.50;;;;;;5069591;28;20040;-67
2021/05/19 08:02:47;;;;;;;2.92;1.92;;;14.10;67.00;;;;;;5086386;28;20403;-63
2021/05/19 08:05:15;;;;;;;5.63;1.88;;;14.00;67.90;;;;;;5085484;28;20024;-62
2021/05/19 08:07:42;;;;;;;3.10;2.28;;;13.80;68.30;;;;;;5084642;28;20028;-63
2021/05/19 08:10:10;;;;;;;4.65;2.05;;;13.90;68.40;;;;;;5085546;28;20684;-63
2021/05/19 08:12:38;;;;;;;3.75;2.40;;;13.90;68.30;;;;;;5081432;28;20089;-72
2021/05/19 08:15:06;;;;;;;2.70;1.83;;;13.80;68.00;;;;;;5087695;28;20023;-62
2021/05/19 08:17:33;;;;;;;4.85;2.17;;;13.80;68.60;;;;;;5085334;28;20496;-63
2021/05/19 08:20:01;;;;;;;6.22;1.90;;;13.70;69.00;;;;;;5090104;28;20075;-70
2021/05/19 08:22:28;;;;;;;4.10;2.03;;;13.60;69.30;;;;;;5088264;28;20020;-68
2021/05/19 08:24:55;;;;;;;3.90;2.30;;;13.60;69.10;;;;;;5086975;28;20024;-62
2021/05/19 08:27:23;;;;;;;5.68;1.90;;;13.70;69.00;;;;;;5084711;28;20499;-63
2021/05/19 08:29:52;;;;;;;4.28;2.10;;;13.60;69.20;;;;;;5083261;28;20039;-65
2021/05/19 08:32:19;;;;;;;6.28;2.03;;;13.60;70.00;;;;;;5081567;28;20419;-66
2021/05/19 08:34:47;;;;;;;3.05;1.77;;;13.50;70.60;;;;;;5084377;28;20734;-66
2021/05/19 08:37:14;;;;;;;5.13;1.75;;;13.40;70.50;;;;;;5086936;28;20392;-66
2021/05/19 08:39:41;;;;;;;5.70;1.77;;;13.30;71.00;;;;;;5085718;28;20032;-75
2021/05/19 08:42:09;;;;;;;4.72;1.58;;;13.20;71.50;;;;;;5085634;28;20136;-68
2021/05/19 08:44:36;;;;;;;5.10;1.83;;;13.10;71.90;;;;;;5083360;28;20024;-70
2021/05/19 08:47:03;;;;;;;6.53;2.10;;;13.00;72.20;;;;;;5084946;28;20109;-74
2021/05/19 08:49:31;;;;;;;5.35;2.25;;;12.90;72.60;;;;;;5081318;28;20388;-74
2021/05/19 08:51:58;;;;;;;4.93;1.92;;;13.00;73.00;;;;;;5082707;28;20022;-70
2021/05/19 08:54:25;;;;;;;4.18;1.77;;;12.90;73.20;;;;;;5081215;28;20024;-64
2021/05/19 08:56:53;;;;;;;6.72;4.78;;;12.80;73.50;;;;;;5084549;28;20461;-69
2021/05/19 08:59:21;;;;;;;10.32;5.00;;;12.70;74.00;;;;;;5082571;28;20176;-69
2021/05/19 09:01:52;;;;;;;5.72;4.47;;;12.60;74.50;;;;;;5081722;28;20027;-68
2021/05/19 09:04:24;;;;;;;5.00;2.20;;;12.50;75.20;;;;;;5080989;28;20035;-74
2021/05/19 09:06:58;;;;;;;5.47;2.58;;;12.50;76.00;;;;;;5080887;28;20254;-70
2021/05/19 09:09:28;;;;;;;8.32;3.25;;;12.50;76.90;;;;;;5081235;28;20460;-63
2021/05/19 09:11:59;;;;;;;10.25;5.75;;;12.50;77.50;;;;;;5081742;28;20240;-70
2021/05/19 09:14:32;;;;;;;6.75;2.70;;;12.50;78.90;;;;;;5079710;28;20024;-65
2021/05/19 09:17:17;;;;;;;4.82;3.05;;;12.40;80.10;;;;;;5079938;28;20154;-66
2021/05/19 09:19:45;;;;;;;8.75;3.22;;;12.40;80.40;;;;;;5079286;28;20367;-65
2021/05/19 09:22:19;;;;;;;5.45;3.20;;;12.40;81.00;;;;;;5080815;28;20024;-64
2021/05/19 09:24:48;;;;;;;7.75;4.05;;;12.30;81.60;;;;;;5080512;28;20328;-72
2021/05/19 09:27:16;;;;;;;8.68;4.82;;;12.40;81.80;;;;;;5081017;28;20377;-66
2021/05/19 09:29:49;;;;;;;6.13;3.15;;;12.30;82.20;;;;;;5080707;28;20055;-66
2021/05/19 09:32:20;;;;;;;6.53;3.17;;;12.30;82.50;;;;;;5078154;28;20059;-65
2021/05/19 09:34:52;;;;;;;7.72;3.17;;;12.30;82.50;;;;;;5080912;28;20024;-64
2021/05/19 09:37:30;;;;;;;12.10;3.63;;;12.30;83.10;;;;;;5078524;28;20016;-66
2021/05/19 09:40:08;;;;;;;4.85;3.42;;;12.30;82.90;;;;;;5081105;28;20453;-67
2021/05/19 09:42:45;;;;;;;10.10;3.78;;;12.20;83.20;;;;;;5080023;28;20074;-66
2021/05/19 09:45:32;;;;;;;11.18;3.42;;;12.20;84.00;;;;;;5080528;28;20042;-75
2021/05/19 09:48:00;;;;;;;6.70;3.58;;;12.20;84.20;;;;;;5080744;28;20020;-72
2021/05/19 09:50:41;;;;;;;7.57;3.10;;;12.20;84.40;;;;;;5075844;28;20342;-72
2021/05/19 09:53:14;;;;;;;8.70;2.70;;;12.10;84.50;;;;;;5079730;28;20432;-76
2021/05/19 09:55:41;;;;;;;;;;;12.00;85.40;;;;;;5079183;28;20020;-73
2021/05/19 09:58:09;;;;;;;6.53;3.10;;;11.90;85.70;;;;;;5081136;28;20337;-65
2021/05/19 10:00:36;;;;;;;8.48;3.58;;;11.90;85.60;;;;;;5080829;28;20032;-71
2021/05/19 10:03:08;;;;;;;6.88;3.58;;;11.80;86.10;;;;;;5078883;28;20033;-71
2021/05/19 10:05:46;;;;;;;10.35;4.32;;;11.80;86.40;;;;;;5075860;28;20020;-63
2021/05/19 10:08:14;;;;;;;8.10;4.18;;;11.70;86.80;;;;;;5081441;28;20426;-71
2021/05/19 10:10:41;;;;;;;7.35;3.45;;;11.60;87.40;;;;;;5078747;28;20108;-64
2021/05/19 10:13:09;;;;;;;6.30;4.00;;;11.60;89.10;;;;;;5079577;28;20028;-71
2021/05/19 10:15:37;;;;;;;6.57;3.63;;;11.60;88.90;;;;;;5078468;28;20115;-64
2021/05/19 10:18:15;;;;;;;8.88;3.50;;;11.50;88.70;;;;;;5080304;28;20441;-64
2021/05/19 10:20:47;;;;;;;9.38;3.97;;;11.40;89.00;;;;;;5079468;28;20073;-69
2021/05/19 10:23:15;;;;;;;7.93;4.20;;;11.20;89.70;;;;;;5082402;28;20020;-71
2021/05/19 10:25:43;;;;;;;7.28;4.13;;;11.20;90.60;;;;;;5079651;28;20500;-63
2021/05/19 10:28:16;;;;;;;9.63;4.10;;;11.20;90.40;;;;;;5079743;28;20032;-73
2021/05/19 10:30:51;;;;;;;9.10;3.67;;;11.20;90.50;;;;;;5081967;28;20050;-73
2021/05/19 10:33:30;;;;;;;9.40;4.40;;;11.10;90.70;;;;;;5080474;28;20039;-73
2021/05/19 10:35:59;;;;;;;8.07;4.45;;;11.10;90.50;;;;;;5077485;28;20060;-65
2021/05/19 10:38:32;;;;;;;7.65;4.28;;;11.10;90.70;;;;;;5081938;28;20486;-69
2021/05/19 10:41:01;;;;;;;8.27;4.57;;;11.00;90.70;;;;;;5079798;28;20040;-71
2021/05/19 10:43:48;;;;;;;6.50;4.28;;;11.00;90.80;;;;;;5079511;28;20036;-65
2021/05/19 10:46:35;;;;;;;9.00;4.40;;;10.90;91.10;;;;;;5079201;28;20157;-70
2021/05/19 10:49:02;;;;;;;10.60;4.85;;;10.90;91.50;;;;;;5079598;28;20093;-63
2021/05/19 10:52:01;;;;;;;9.00;4.78;;;10.80;91.40;;;;;;5079673;28;20085;-63
2021/05/19 10:57:47;;;;;;;13.10;5.40;;;10.80;91.30;;;;;;5080081;28;20353;-72
2021/05/19 11:00:23;;;;;;;6.87;4.33;;;10.70;91.20;;;;;;5015968;28;20390;-69
2021/05/19 11:03:04;;;;;;;7.50;4.47;;;10.60;91.60;;;;;;5071509;28;20047;-64
2021/05/19 11:05:34;;;;;;;8.70;5.05;;;10.50;91.80;;;;;;5080021;28;20421;-72
2021/05/19 11:08:11;;;;;;;8.93;4.65;;;10.50;91.60;;;;;;5079162;28;20325;-63
2021/05/19 11:10:46;;;;;;;9.57;4.78;;;10.50;91.30;;;;;;5077473;28;20469;-70
2021/05/19 11:13:15;;;;;;;9.13;5.25;;;10.40;91.60;;;;;;5077797;28;20237;-72
2021/05/19 11:19:22;;;;;;;15.57;6.80;;;10.30;91.10;;;;;;5083898;28;20052;-63
2021/05/19 11:21:22;;;;;;;17.75;11.25;;;10.20;91.30;;;;;;5075376;28;20216;-63
2021/05/19 11:24:15;;;;;;;16.93;11.47;;;10.10;91.10;;;;;;5082931;28;20764;-63
2021/05/19 11:26:48;;;;;;;14.20;6.15;;;10.10;91.30;;;;;;5078667;28;20032;-70
2021/05/19 11:29:16;;;;;;;17.20;6.00;;;10.00;91.00;;;;;;5083838;28;20543;-64
2021/05/19 11:31:47;;;;;;;17.83;6.18;;;9.90;91.00;;;;;;5082177;28;20047;-62
2021/05/19 11:34:16;;;;;;;13.02;5.82;;;9.90;91.00;;;;;;5085867;28;20484;-64
2021/05/19 11:36:55;;;;;;;8.23;5.22;;;9.90;90.90;;;;;;5086097;28;20069;-70
2021/05/19 11:39:39;;;;;;;11.50;5.82;;;9.80;91.00;;;;;;5084353;28;20020;-72
2021/05/19 11:42:16;;;;;;;12.90;6.38;;;9.80;90.70;;;;;;5083388;28;20442;-62
2021/05/19 11:44:56;;;;;;;19.50;5.93;;;9.70;91.10;;;;;;5085582;28;20099;-62
2021/05/19 11:47:44;;;;;;;12.48;5.78;;;9.60;91.20;;;;;;5086865;28;20020;-64
2021/05/19 11:50:11;;;;;;;16.48;6.80;;;9.60;91.40;;;;;;5084751;28;20089;-63
2021/05/19 11:52:57;;;;;;;16.98;6.25;;;9.50;91.30;;;;;;5086849;28;20381;-69
2021/05/19 11:55:38;;;;;;;28.17;10.00;;;9.40;91.50;;;;;;5087127;28;20020;-72
2021/05/19 11:58:26;;;;;;;17.67;7.78;;;9.30;91.80;;;;;;5085544;28;20074;-68
2021/05/19 12:01:17;;;;;;;22.20;7.80;;;9.30;91.90;;;;;;5086569;28;20020;-64
2021/05/19 12:03:47;;;;;;;26.38;9.57;;;9.20;92.10;;;;;;5086515;28;20500;-70
2021/05/19 12:06:15;;;;;;;36.30;10.70;;;9.30;92.20;;;;;;5086613;28;20085;-70
2021/05/19 12:08:45;;;;;;;39.17;11.27;;;9.50;92.40;;;;;;5086852;28;20027;-63
2021/05/19 12:11:21;;;;;;;42.33;10.95;;;9.50;92.20;;;;;;5086203;28;20027;-73
2021/05/19 12:14:04;;;;;;;31.80;8.82;;;9.60;92.10;;;;;;5085097;28;20346;-64
2021/05/19 12:16:36;;;;;;;38.22;9.70;;;9.80;91.90;;;;;;5084044;28;20028;-72
2021/05/19 12:19:18;;;;;;;30.05;9.32;;;9.80;91.70;;;;;;5079607;28;20052;-70
2021/05/19 12:21:54;;;;;;;32.90;9.45;;;9.80;91.90;;;;;;5085161;28;20031;-62
2021/05/19 12:24:25;;;;;;;33.10;9.23;;;9.80;91.50;;;;;;5085884;28;20443;-62
2021/05/19 12:26:57;;;;;;;21.27;8.35;;;9.80;91.60;;;;;;5086322;28;20031;-70
2021/05/19 12:29:47;;;;;;;29.02;9.40;;;9.80;91.70;;;;;;5086916;28;20024;-61
2021/05/19 12:32:19;;;;;;;23.95;8.10;;;9.90;91.60;;;;;;5080567;28;20471;-64
2021/05/19 12:34:58;;;;;;;24.60;9.35;;;9.70;91.70;;;;;;5086361;28;20028;-62
2021/05/19 12:37:47;;;;;;;21.95;7.55;;;9.60;92.00;;;;;;5085922;28;20028;-70
2021/05/19 12:40:17;;;;;;;27.15;8.75;;;9.60;92.40;;;;;;5082419;28;20506;-70
2021/05/19 12:42:49;;;;;;;27.45;9.00;;;9.50;92.20;;;;;;5080685;28;20027;-62
2021/05/19 12:45:28;;;;;;;26.15;8.70;;;9.50;92.50;;;;;;5086897;28;20110;-62
2021/05/19 12:48:15;;;;;;;25.45;7.85;;;9.50;92.10;;;;;;5086313;28;20468;-70
2021/05/19 12:50:57;;;;;;;26.50;8.73;;;9.40;92.40;;;;;;5087119;28;20035;-71
2021/05/19 12:53:43;;;;;;;25.67;9.10;;;9.40;92.40;;;;;;5086508;28;20099;-63
2021/05/19 12:56:15;;;;;;;25.00;8.73;;;9.30;92.80;;;;;;5085816;28;20040;-68
2021/05/19 12:59:12;;;;;;;26.52;8.38;;;9.30;92.50;;;;;;5084177;28;20096;-63
2021/05/19 13:01:47;;;;;;;30.25;8.98;;;9.30;92.50;;;;;;5076677;28;20421;-72
2021/05/19 13:04:17;;;;;;;27.80;9.07;;;9.20;92.80;;;;;;5084754;28;20028;-73
2021/05/19 13:06:50;;;;;;;19.92;8.13;;;9.20;92.60;;;;;;5080668;28;20032;-74
2021/05/19 13:09:21;;;;;;;26.77;10.35;;;9.00;92.60;;;;;;5087012;28;20156;-63
2021/05/19 13:12:07;;;;;;;26.90;9.23;;;9.00;93.10;;;;;;5085288;28;20437;-63
2021/05/19 13:14:39;;;;;;;22.10;8.10;;;9.00;93.00;;;;;;5078210;28;20127;-62
2021/05/19 13:17:27;;;;;;;21.52;8.05;;;9.00;92.90;;;;;;5084796;28;20039;-63